createdAt,value
2023-01-08T11:01:47.746Z,68.19
2023-01-08T11:04:55.013Z,68.55
2023-01-08T11:08:05.860Z,67.39
2023-01-08T11:11:13.469Z,66.49
2023-01-08T11:14:26.747Z,66.71
2023-01-08T11:17:34.099Z,66.31
2023-01-08T11:20:42.095Z,65.94
2023-01-08T11:23:49.340Z,65.07
2023-01-08T11:26:59.136Z,64.95
2023-01-08T11:30:08.583Z,64.08
2023-01-08T11:33:19.925Z,63.32
2023-01-08T11:36:31.669Z,62.75
2023-01-08T11:39:39.148Z,62.33
2023-01-08T11:42:57.598Z,62.61
2023-01-08T11:46:31.512Z,62.04
2023-01-08T11:50:00.006Z,61.37
2023-01-08T11:53:18.766Z,61.24
2023-01-08T11:56:41.125Z,61.09
2023-01-08T12:00:03.244Z,60.28
2023-01-08T12:03:27.430Z,58.57
2023-01-08T12:06:42.913Z,58.48
2023-01-08T12:09:54.470Z,59.74
2023-01-08T12:13:14.779Z,63.33
2023-01-08T12:16:39.135Z,64.10
2023-01-08T12:20:00.119Z,63.16
2023-01-08T12:23:21.077Z,62.28
2023-01-08T12:26:35.758Z,61.93
2023-01-08T12:30:09.543Z,61.31
2023-01-08T12:33:34.780Z,60.75
2023-01-08T12:36:45.530Z,60.30
2023-01-08T12:40:01.190Z,58.84
2023-01-08T12:43:14.446Z,57.89
2023-01-08T12:46:21.657Z,58.86
2023-01-08T12:49:35.901Z,60.66
2023-01-08T12:52:50.691Z,61.98
2023-01-08T12:56:06.279Z,60.78
2023-01-08T12:59:26.355Z,60.44
2023-01-08T13:02:40.676Z,57.72
2023-01-08T13:05:47.076Z,57.63
2023-01-08T13:08:55.067Z,59.18
2023-01-08T13:12:02.505Z,61.34
2023-01-08T13:15:20.732Z,62.63
2023-01-08T13:18:26.900Z,60.85
2023-01-08T13:21:39.077Z,60.07
2023-01-08T13:24:45.321Z,59.77
2023-01-08T13:27:51.741Z,57.83
2023-01-08T13:31:09.356Z,57.63
2023-01-08T13:34:36.900Z,58.43
2023-01-08T13:37:43.383Z,59.54
2023-01-08T13:40:57.782Z,61.48
2023-01-08T13:44:06.603Z,62.04
2023-01-08T13:47:23.597Z,60.95
2023-01-08T13:50:30.717Z,60.08
2023-01-08T13:53:38.015Z,59.85
2023-01-08T13:56:45.997Z,58.28
2023-01-08T13:59:57.371Z,58.13
2023-01-08T14:03:03.708Z,59.07
2023-01-08T14:06:16.339Z,59.90
2023-01-08T14:09:25.289Z,61.92
2023-01-08T14:12:31.692Z,62.45
2023-01-08T14:15:39.880Z,61.44
2023-01-08T14:18:47.462Z,60.17
2023-01-08T14:21:56.360Z,59.98
2023-01-08T14:25:07.778Z,59.66
2023-01-08T14:28:20.087Z,58.39
2023-01-08T14:31:28.149Z,58.01
2023-01-08T14:34:39.180Z,59.11
2023-01-08T14:37:45.411Z,60.45
2023-01-08T14:41:01.717Z,63.08
2023-01-08T14:44:14.044Z,64.02
2023-01-08T14:47:22.008Z,62.95
2023-01-08T14:50:30.264Z,62.14
2023-01-08T14:53:39.507Z,61.41
2023-01-08T14:56:48.822Z,60.94
2023-01-08T14:59:58.117Z,60.71
2023-01-08T15:03:04.364Z,60.30
2023-01-08T15:06:12.048Z,60.03
2023-01-08T15:09:35.954Z,60.02
2023-01-08T15:12:42.119Z,59.97
2023-01-08T15:15:57.191Z,59.85
2023-01-08T15:19:08.762Z,59.24
2023-01-08T15:22:20.522Z,57.37
2023-01-08T15:25:29.445Z,58.92
2023-01-08T15:28:35.746Z,60.52
2023-01-08T15:31:50.474Z,63.40
2023-01-08T15:34:56.599Z,64.11
2023-01-08T15:38:02.818Z,62.39
2023-01-08T15:41:10.764Z,61.76
2023-01-08T15:44:16.972Z,62.12
2023-01-08T15:47:23.152Z,62.39
2023-01-08T15:50:32.425Z,62.18
2023-01-08T15:53:38.481Z,61.62
2023-01-08T15:56:44.889Z,61.23
2023-01-08T15:59:49.350Z,61.30
2023-01-08T16:02:56.451Z,61.31
2023-01-08T16:06:06.601Z,60.91
2023-01-08T16:09:12.830Z,60.55
2023-01-08T16:12:18.994Z,59.71
2023-01-08T16:15:25.169Z,60.05
2023-01-08T16:18:31.439Z,60.16
2023-01-08T16:21:35.996Z,61.29
2023-01-08T16:24:42.232Z,61.98
2023-01-08T16:27:48.443Z,62.29
2023-01-08T16:30:54.904Z,62.64
2023-01-08T16:34:05.372Z,62.40
2023-01-08T16:37:11.619Z,62.15
2023-01-08T16:40:19.294Z,60.96
2023-01-08T16:43:25.920Z,60.59
2023-01-08T16:46:32.134Z,60.60
2023-01-08T16:49:39.800Z,61.13
2023-01-08T16:52:47.743Z,61.66
2023-01-08T16:55:53.966Z,62.54
2023-01-08T16:59:00.119Z,61.64
2023-01-08T17:02:06.727Z,61.04
2023-01-08T17:05:13.125Z,61.27
2023-01-08T17:08:19.942Z,61.61
2023-01-08T17:11:26.322Z,61.70
2023-01-08T17:14:31.331Z,61.14
2023-01-08T17:17:37.809Z,61.49
2023-01-08T17:20:43.977Z,62.50
2023-01-08T17:23:50.207Z,62.44
2023-01-08T17:26:58.281Z,61.99
2023-01-08T17:30:04.755Z,62.37
2023-01-08T17:33:13.976Z,62.13
2023-01-08T17:36:22.873Z,61.51
2023-01-08T17:39:29.307Z,61.67
2023-01-08T17:42:33.867Z,61.45
2023-01-08T17:45:42.110Z,61.56
2023-01-08T17:48:49.076Z,61.35
2023-01-08T17:51:57.103Z,61.24
2023-01-08T17:55:03.294Z,60.98
2023-01-08T17:58:09.813Z,61.34
2023-01-08T18:01:16.083Z,61.23
2023-01-08T18:04:20.671Z,61.19
2023-01-08T18:07:26.886Z,61.69
2023-01-08T18:10:33.236Z,61.75
2023-01-08T18:13:39.690Z,61.67
2023-01-08T18:16:49.759Z,61.33
2023-01-08T18:19:56.011Z,61.59
2023-01-08T18:23:02.112Z,62.47
2023-01-08T18:26:12.223Z,62.59
2023-01-08T18:29:18.722Z,62.41
2023-01-08T18:32:26.206Z,62.50
2023-01-08T18:35:33.524Z,62.37
2023-01-08T18:38:44.183Z,62.70
2023-01-08T18:42:07.850Z,63.42
2023-01-08T18:45:15.179Z,64.05
2023-01-08T18:48:21.219Z,64.63
2023-01-08T18:51:28.686Z,64.40
2023-01-08T18:54:35.549Z,63.44
2023-01-08T18:57:41.866Z,63.17
2023-01-08T19:00:48.446Z,62.75
2023-01-08T19:03:55.744Z,63.85
2023-01-08T19:07:04.595Z,65.13
2023-01-08T19:10:16.010Z,63.40
2023-01-08T19:13:22.735Z,62.51
2023-01-08T19:16:30.149Z,62.14
2023-01-08T19:19:38.995Z,61.96
2023-01-08T19:22:45.708Z,62.28
2023-01-08T19:25:52.979Z,62.67
2023-01-08T19:28:59.549Z,62.95
2023-01-08T19:32:07.876Z,63.43
2023-01-08T19:35:22.341Z,64.56
2023-01-08T19:38:29.687Z,65.62
2023-01-08T19:41:56.864Z,64.99
2023-01-08T19:45:03.441Z,64.06
2023-01-08T19:48:10.427Z,63.82
2023-01-08T19:51:18.236Z,63.26
2023-01-08T19:54:25.993Z,63.26
2023-01-08T19:57:32.207Z,63.68
2023-01-08T20:00:39.673Z,63.36
2023-01-08T20:03:46.591Z,63.43
2023-01-08T20:06:53.583Z,63.28
2023-01-08T20:10:04.080Z,63.57
2023-01-08T20:13:10.496Z,63.33
2023-01-08T20:16:18.887Z,63.02
2023-01-08T20:19:28.940Z,63.23
2023-01-08T20:22:35.198Z,63.19
2023-01-08T20:25:42.077Z,63.89
2023-01-08T20:28:52.001Z,63.89
2023-01-08T20:31:59.499Z,63.86
2023-01-08T20:35:06.603Z,64.55
2023-01-08T20:38:12.797Z,64.47
2023-01-08T20:41:19.273Z,64.00
2023-01-08T20:44:26.040Z,63.73
2023-01-08T20:47:35.011Z,63.88
2023-01-08T20:50:44.947Z,64.69
2023-01-08T20:53:51.465Z,65.05
2023-01-08T20:56:59.529Z,64.69
2023-01-08T21:00:06.861Z,64.76
2023-01-08T21:03:13.553Z,64.88
2023-01-08T21:06:21.220Z,65.43
2023-01-08T21:09:28.480Z,65.49
2023-01-08T21:12:35.763Z,66.03
2023-01-08T21:15:41.984Z,65.66
2023-01-08T21:18:48.643Z,65.47
2023-01-08T21:21:54.873Z,65.63
2023-01-08T21:25:01.165Z,65.57
2023-01-08T21:28:08.646Z,65.75
2023-01-08T21:31:16.803Z,66.86
2023-01-08T21:34:23.036Z,67.19
2023-01-08T21:37:30.338Z,66.97
2023-01-08T21:40:36.568Z,66.62
2023-01-08T21:43:59.936Z,66.35
2023-01-08T21:47:08.440Z,66.27
2023-01-08T21:50:15.268Z,66.44
2023-01-08T21:53:36.159Z,66.15
2023-01-08T21:56:42.724Z,66.19
2023-01-08T21:59:51.831Z,66.23
2023-01-08T22:02:58.139Z,66.40
2023-01-08T22:06:03.435Z,65.66
2023-01-08T22:09:09.758Z,65.45
2023-01-08T22:12:15.151Z,66.06
2023-01-08T22:15:21.642Z,66.35
2023-01-08T22:18:27.923Z,66.73
2023-01-08T22:21:34.153Z,66.45
2023-01-08T22:24:41.054Z,66.58
2023-01-08T22:27:51.239Z,66.67
2023-01-08T22:30:57.863Z,66.44
2023-01-08T22:34:04.138Z,66.12
2023-01-08T22:37:10.410Z,65.83
2023-01-08T22:40:17.397Z,65.51
2023-01-08T22:43:23.657Z,65.29
2023-01-08T22:46:29.942Z,65.13
2023-01-08T22:49:34.659Z,65.37
2023-01-08T22:52:41.034Z,65.71
2023-01-08T22:55:46.993Z,65.34
2023-01-08T22:58:51.820Z,65.21
2023-01-08T23:01:58.048Z,64.88
2023-01-08T23:05:05.019Z,64.65
2023-01-08T23:08:11.960Z,64.94
2023-01-08T23:11:20.373Z,65.53
2023-01-08T23:14:26.633Z,65.72
2023-01-08T23:17:38.906Z,66.08
2023-01-08T23:20:50.819Z,65.38
2023-01-08T23:23:55.348Z,65.38
2023-01-08T23:27:01.599Z,66.02
2023-01-08T23:30:09.565Z,65.34
2023-01-08T23:33:15.803Z,64.57
2023-01-08T23:36:22.955Z,65.49
2023-01-08T23:39:29.235Z,65.36
2023-01-08T23:42:35.710Z,65.48
2023-01-08T23:45:42.178Z,65.27
2023-01-08T23:48:51.062Z,64.95
2023-01-08T23:51:57.811Z,65.31
2023-01-08T23:55:04.102Z,65.69
2023-01-08T23:58:08.563Z,65.81
